Time;durP1;ratioP1;P1;durP2;ratioP2;P2;SDS_P1;SDS_P2;PMS_P1;PMS_P2;Temp;Humidity;BMP_temperature;BMP_pressure;BME280_temperature;BME280_humidity;BME280_pressure;Samples;Min_cycle;Max_cycle;Signal;HPM_P1;HPM_P2
2022/11/02 00:04:53;;;;;;;5.83;1.63;;;10.80;99.90;;;;;;10390202;28;20229;-77
2022/11/02 00:09:56;;;;;;;8.30;2.50;;;10.80;99.90;;;;;;10396453;28;20282;-76
2022/11/02 00:14:57;;;;;;;5.80;1.73;;;10.90;99.90;;;;;;10386950;28;20234;-77
2022/11/02 00:19:58;;;;;;;9.43;2.50;;;10.90;99.90;;;;;;10394397;28;20449;-76
2022/11/02 00:25:02;;;;;;;8.10;2.13;;;11.00;99.90;;;;;;10385998;28;20252;-76
2022/11/02 00:30:03;;;;;;;5.53;1.70;;;11.00;99.90;;;;;;10399066;28;20234;-76
2022/11/02 00:35:07;;;;;;;7.53;1.90;;;11.10;99.90;;;;;;10395181;28;20219;-78
2022/11/02 00:40:08;;;;;;;5.10;2.03;;;11.10;99.90;;;;;;10394566;28;20221;-78
2022/11/02 00:45:09;;;;;;;8.33;2.13;;;11.10;99.90;;;;;;10442256;28;20310;-77
2022/11/02 00:50:10;;;;;;;5.57;2.13;;;11.00;99.90;;;;;;10405771;28;20263;-80
2022/11/02 00:55:14;;;;;;;9.87;2.33;;;11.10;99.90;;;;;;10456652;28;20278;-81
2022/11/02 01:00:15;;;;;;;8.10;1.80;;;11.10;99.90;;;;;;10444955;28;20184;-78
2022/11/02 01:05:16;;;;;;;8.80;2.10;;;11.10;99.90;;;;;;10397696;28;20725;-78
2022/11/02 01:10:17;;;;;;;5.93;2.50;;;11.20;99.90;;;;;;10391475;28;20239;-78
2022/11/02 01:15:17;;;;;;;6.53;1.43;;;11.20;99.90;;;;;;10388206;28;20189;-78
2022/11/02 01:20:18;;;;;;;9.60;2.37;;;11.30;99.90;;;;;;10390520;28;20221;-77
2022/11/02 01:25:19;;;;;;;3.73;1.60;;;11.30;99.90;;;;;;10386671;28;20212;-79
2022/11/02 01:30:19;;;;;;;7.70;2.10;;;11.30;99.90;;;;;;10389079;28;20276;-82
2022/11/02 01:35:20;;;;;;;8.23;1.80;;;11.40;99.90;;;;;;10389464;28;20654;-81
2022/11/02 01:40:20;;;;;;;7.57;2.10;;;11.30;99.90;;;;;;10389344;28;20292;-80
2022/11/02 01:45:21;;;;;;;7.63;1.77;;;11.30;99.90;;;;;;10388800;28;21045;-83
2022/11/02 01:50:26;;;;;;;5.97;1.90;;;11.30;99.90;;;;;;10397873;28;20583;-80
2022/11/02 01:55:30;;;;;;;8.00;2.00;;;11.40;99.90;;;;;;10387836;28;20833;-79
2022/11/02 02:00:33;;;;;;;7.00;2.00;;;11.40;99.90;;;;;;10387388;28;20430;-82
2022/11/02 02:05:45;;;;;;;11.57;2.13;;;11.40;99.90;;;;;;10384389;28;20330;-83
2022/11/02 02:10:46;;;;;;;6.90;1.93;;;11.50;99.90;;;;;;10391471;28;20234;-82
2022/11/02 02:15:53;;;;;;;9.07;2.17;;;11.60;99.90;;;;;;10383463;28;20232;-78
2022/11/02 02:21:31;;;;;;;5.43;1.97;;;11.60;99.90;;;;;;10388378;28;20559;-81
2022/11/02 02:26:55;;;;;;;7.20;2.17;;;11.60;99.90;;;;;;10387237;28;20286;-78
2022/11/02 02:32:14;;;;;;;11.63;2.40;;;11.60;99.90;;;;;;10384476;28;20216;-78
2022/11/02 02:37:31;;;;;;;8.20;2.30;;;11.60;99.90;;;;;;10415576;28;20264;-79
2022/11/02 02:42:32;;;;;;;8.10;2.30;;;11.70;99.90;;;;;;10396784;28;20256;-78
2022/11/02 02:47:34;;;;;;;8.40;2.60;;;11.60;99.90;;;;;;10396013;28;20240;-79
2022/11/02 02:52:37;;;;;;;8.73;2.23;;;11.60;99.90;;;;;;10392118;28;20343;-77
2022/11/02 02:57:38;;;;;;;7.40;2.23;;;11.60;99.90;;;;;;10389980;28;20216;-78
2022/11/02 03:02:40;;;;;;;10.20;2.50;;;11.60;99.90;;;;;;10394783;28;20243;-78
2022/11/02 03:13:24;;;;;;;8.33;2.43;;;11.60;99.90;;;;;;10528633;27;20536;-79
2022/11/02 03:18:47;;;;;;;6.50;2.33;;;11.50;99.90;;;;;;10493786;28;20231;-78
2022/11/02 03:24:01;;;;;;;10.03;2.60;;;11.50;99.90;;;;;;10503976;27;20233;-77
2022/11/02 03:29:11;;;;;;;10.17;2.40;;;11.50;99.90;;;;;;10492911;28;20239;-79
2022/11/02 03:34:38;;;;;;;7.30;1.80;;;11.40;99.90;;;;;;10506717;28;20301;-79
2022/11/02 03:39:44;;;;;;;8.10;2.53;;;11.40;99.90;;;;;;10505505;27;20237;-77
2022/11/02 03:44:48;;;;;;;9.50;3.20;;;11.40;99.90;;;;;;10502553;28;20284;-76
2022/11/02 03:49:50;;;;;;;8.30;2.33;;;11.40;99.90;;;;;;10506382;27;20230;-76
2022/11/02 03:54:57;;;;;;;8.20;2.30;;;11.40;99.90;;;;;;10498545;28;20250;-75
2022/11/02 04:00:30;;;;;;;12.17;2.33;;;11.50;99.90;;;;;;10498994;28;20276;-76
2022/11/02 04:05:33;;;;;;;10.47;2.53;;;11.60;99.90;;;;;;10444310;28;20769;-77
2022/11/02 04:10:34;;;;;;;11.37;3.10;;;11.60;99.90;;;;;;10502454;27;20265;-77
2022/11/02 04:15:35;;;;;;;8.27;2.27;;;11.60;99.90;;;;;;10533707;28;20234;-76
2022/11/02 04:20:35;;;;;;;9.80;2.40;;;11.70;99.90;;;;;;10496346;28;20580;-74
2022/11/02 04:25:36;;;;;;;6.53;2.40;;;11.60;99.90;;;;;;10472136;28;20215;-72
2022/11/02 04:30:36;;;;;;;7.03;2.27;;;11.60;99.90;;;;;;10474288;28;20234;-72
2022/11/02 04:35:37;;;;;;;16.50;3.47;;;11.70;99.90;;;;;;10471691;28;20280;-73
2022/11/02 04:40:38;;;;;;;10.47;2.50;;;11.70;99.90;;;;;;10466037;28;20569;-75
2022/11/02 04:45:38;;;;;;;9.43;2.53;;;11.70;99.90;;;;;;10455728;28;20683;-74
2022/11/02 04:50:39;;;;;;;8.37;2.50;;;11.70;99.90;;;;;;10468382;28;20710;-75
2022/11/02 04:55:40;;;;;;;9.20;2.67;;;11.70;99.90;;;;;;10448887;28;20226;-74
2022/11/02 05:00:41;;;;;;;11.43;2.43;;;11.50;99.90;;;;;;10450278;28;20702;-74
2022/11/02 05:05:42;;;;;;;8.50;2.60;;;11.40;99.90;;;;;;10450004;28;20216;-76
2022/11/02 05:10:43;;;;;;;8.43;2.77;;;11.20;99.90;;;;;;10447576;28;20551;-74
2022/11/02 05:15:43;;;;;;;10.63;3.03;;;11.00;99.90;;;;;;10451436;28;20250;-71
2022/11/02 05:20:52;;;;;;;7.63;2.83;;;10.90;99.90;;;;;;10452145;28;20219;-73
2022/11/02 05:25:54;;;;;;;8.93;2.53;;;10.90;99.90;;;;;;10447969;28;20632;-74
2022/11/02 05:30:56;;;;;;;10.40;2.90;;;10.80;99.90;;;;;;10449687;28;20235;-74
2022/11/02 05:35:58;;;;;;;9.60;2.63;;;10.70;99.90;;;;;;10449529;28;20588;-76
2022/11/02 05:40:59;;;;;;;7.73;2.73;;;10.60;99.90;;;;;;10449088;28;20216;-74
2022/11/02 05:46:01;;;;;;;9.27;2.67;;;10.60;99.90;;;;;;10450581;28;20249;-74
2022/11/02 05:51:03;;;;;;;9.87;2.50;;;10.60;99.90;;;;;;10451577;28;20224;-75
2022/11/02 05:56:06;;;;;;;8.83;2.70;;;10.70;99.90;;;;;;10471649;28;20214;-73
2022/11/02 06:01:07;;;;;;;7.13;2.50;;;10.70;99.90;;;;;;10464110;28;20686;-73
2022/11/02 06:06:09;;;;;;;8.47;2.33;;;10.60;99.90;;;;;;10504586;28;20701;-74
2022/11/02 06:11:14;;;;;;;14.33;3.30;;;10.60;99.90;;;;;;10467544;28;20321;-74
2022/11/02 06:16:15;;;;;;;10.57;2.90;;;10.60;99.90;;;;;;10471963;28;20295;-74
2022/11/02 06:21:16;;;;;;;8.90;2.40;;;10.60;99.90;;;;;;10506520;28;20249;-74
2022/11/02 06:26:18;;;;;;;7.07;2.10;;;10.50;99.90;;;;;;10493950;28;20224;-75
2022/11/02 06:31:22;;;;;;;10.40;2.60;;;10.50;99.90;;;;;;10462332;28;20702;-74
2022/11/02 06:36:22;;;;;;;9.60;2.37;;;10.50;99.90;;;;;;10494995;28;20320;-75
2022/11/02 06:41:23;;;;;;;9.60;2.97;;;10.60;99.90;;;;;;10459235;28;20314;-73
2022/11/02 06:46:24;;;;;;;7.23;2.37;;;10.60;99.90;;;;;;10447859;28;20223;-75
2022/11/02 06:51:24;;;;;;;9.37;3.27;;;10.80;99.90;;;;;;10456229;28;20234;-73
2022/11/02 06:56:25;;;;;;;9.33;2.60;;;11.10;99.90;;;;;;10457099;28;20231;-74
2022/11/02 07:01:26;;;;;;;9.93;2.53;;;11.40;99.90;;;;;;10463294;28;20279;-74
2022/11/02 07:06:26;;;;;;;10.97;3.40;;;11.60;99.90;;;;;;10457239;28;20216;-74
2022/11/02 07:11:27;;;;;;;10.37;2.60;;;11.70;99.90;;;;;;10461209;28;20660;-76
2022/11/02 07:16:27;;;;;;;5.70;2.20;;;11.70;99.90;;;;;;10465866;28;20223;-74
2022/11/02 07:21:28;;;;;;;13.33;2.90;;;11.70;99.90;;;;;;10457887;28;20230;-74
2022/11/02 07:26:29;;;;;;;9.77;2.63;;;11.80;99.90;;;;;;10448716;28;20273;-74
2022/11/02 07:31:31;;;;;;;12.20;3.00;;;11.90;99.90;;;;;;10455386;28;20288;-74
2022/11/02 07:36:31;;;;;;;8.77;2.37;;;12.10;99.90;;;;;;10450154;28;20224;-73
2022/11/02 07:41:33;;;;;;;11.73;2.70;;;12.30;99.90;;;;;;10445223;28;20253;-74
2022/11/02 07:46:34;;;;;;;8.30;2.57;;;14.00;99.90;;;;;;10462651;28;20635;-74
2022/11/02 07:51:35;;;;;;;11.37;2.73;;;17.90;99.90;;;;;;10461660;28;20299;-76
2022/11/02 07:56:35;;;;;;;9.37;2.67;;;21.10;99.90;;;;;;10456820;28;20317;-75
2022/11/02 08:01:36;;;;;;;6.20;2.40;;;23.30;99.90;;;;;;10463746;28;20321;-74
2022/11/02 08:06:36;;;;;;;5.60;2.20;;;24.60;93.90;;;;;;10462706;28;20232;-75
2022/11/02 08:11:37;;;;;;;6.70;2.47;;;25.50;87.50;;;;;;10462336;28;20756;-75
2022/11/02 08:16:38;;;;;;;10.50;2.73;;;26.20;80.20;;;;;;10461973;28;20321;-74
2022/11/02 08:21:38;;;;;;;8.83;2.70;;;27.00;71.90;;;;;;10471871;28;20757;-74
2022/11/02 08:26:39;;;;;;;6.50;2.47;;;27.40;68.30;;;;;;10469199;28;20256;-74
2022/11/02 08:31:39;;;;;;;5.27;2.13;;;28.50;62.40;;;;;;10454032;28;20229;-73
2022/11/02 08:36:40;;;;;;;7.27;2.90;;;29.10;58.30;;;;;;10473667;28;20252;-74
2022/11/02 08:41:41;;;;;;;7.27;2.60;;;29.30;56.90;;;;;;10458308;28;20226;-75
2022/11/02 08:46:42;;;;;;;6.60;2.73;;;29.90;54.50;;;;;;10463997;28;20778;-74
2022/11/02 08:51:42;;;;;;;6.90;2.53;;;29.80;53.40;;;;;;10461550;28;20277;-75
2022/11/02 08:56:43;;;;;;;7.33;3.00;;;30.60;51.70;;;;;;10464486;28;20265;-75
2022/11/02 09:01:44;;;;;;;8.33;2.70;;;31.40;48.50;;;;;;10454096;28;20590;-74
2022/11/02 09:06:44;;;;;;;8.07;2.50;;;31.60;47.40;;;;;;10460997;28;20640;-75
2022/11/02 09:11:45;;;;;;;7.53;2.50;;;31.80;46.10;;;;;;10465357;28;20707;-75
2022/11/02 09:16:45;;;;;;;6.30;2.47;;;31.80;45.90;;;;;;10458730;28;20685;-76
2022/11/02 09:21:48;;;;;;;7.00;2.63;;;31.70;44.40;;;;;;10459615;28;20596;-75
2022/11/02 09:26:51;;;;;;;8.03;2.73;;;32.00;44.00;;;;;;10454097;28;20231;-75
2022/11/02 09:31:52;;;;;;;8.13;2.63;;;31.50;43.80;;;;;;10463512;28;20698;-75
2022/11/02 09:36:53;;;;;;;8.33;2.30;;;32.70;43.00;;;;;;10471639;28;20234;-75
2022/11/02 09:42:06;;;;;;;8.27;2.30;;;32.90;42.00;;;;;;10459064;28;20220;-75
2022/11/02 09:47:10;;;;;;;9.47;2.97;;;33.20;40.30;;;;;;10458136;28;20220;-74
2022/11/02 09:52:23;;;;;;;5.97;2.47;;;32.80;40.80;;;;;;10450553;28;20231;-75
2022/11/02 09:57:27;;;;;;;7.13;2.50;;;32.50;40.70;;;;;;10450971;28;20595;-75
2022/11/02 10:02:31;;;;;;;8.83;2.90;;;32.20;40.00;;;;;;10456299;28;20223;-75
2022/11/02 10:08:01;;;;;;;11.30;2.63;;;28.80;44.90;;;;;;10462474;28;20269;-75
2022/11/02 10:13:26;;;;;;;9.40;2.33;;;26.20;48.60;;;;;;10443232;28;20227;-75
2022/11/02 10:18:29;;;;;;;12.13;2.90;;;25.70;51.20;;;;;;10459908;28;20262;-76
2022/11/02 10:23:34;;;;;;;8.43;2.30;;;24.40;52.00;;;;;;10485786;28;20242;-75
2022/11/02 10:28:38;;;;;;;11.13;2.10;;;23.60;55.50;;;;;;10458381;28;20297;-76
2022/11/02 10:33:39;;;;;;;6.73;2.50;;;25.00;52.70;;;;;;10454679;28;20212;-76
2022/11/02 10:39:02;;;;;;;7.43;2.57;;;27.60;49.80;;;;;;10459393;28;20219;-76
2022/11/02 10:44:30;;;;;;;7.53;2.47;;;26.40;49.00;;;;;;10454144;28;20297;-75
2022/11/02 10:50:08;;;;;;;5.60;2.23;;;23.50;53.80;;;;;;10459173;28;20218;-76
2022/11/02 10:55:21;;;;;;;8.73;2.50;;;21.80;58.40;;;;;;10446174;28;20216;-76
2022/11/02 11:00:26;;;;;;;9.93;2.23;;;25.80;50.60;;;;;;10460640;28;20202;-76
2022/11/02 11:05:27;;;;;;;6.77;2.00;;;23.70;52.90;;;;;;10448571;28;20233;-76
2022/11/02 11:10:36;;;;;;;8.10;2.40;;;21.60;57.60;;;;;;10451491;28;20864;-75
2022/11/02 11:15:36;;;;;;;6.60;1.87;;;20.20;62.40;;;;;;10461828;28;20221;-75
2022/11/02 11:20:38;;;;;;;7.63;2.10;;;19.30;65.10;;;;;;10461018;28;20220;-75
2022/11/02 11:25:40;;;;;;;6.53;1.90;;;18.90;67.30;;;;;;10485183;28;20222;-75
2022/11/02 11:30:40;;;;;;;5.47;1.90;;;19.20;68.20;;;;;;10464851;28;20319;-74
2022/11/02 11:35:48;;;;;;;9.63;1.90;;;19.30;67.20;;;;;;10462761;28;20299;-76
2022/11/02 11:40:58;;;;;;;7.90;1.87;;;18.50;67.10;;;;;;10477956;28;20297;-76
2022/11/02 11:46:01;;;;;;;4.50;1.67;;;18.00;67.90;;;;;;10453614;28;20213;-77
2022/11/02 11:51:03;;;;;;;10.80;2.07;;;17.80;69.20;;;;;;10462251;28;20357;-75
2022/11/02 11:56:04;;;;;;;7.77;2.30;;;17.90;70.20;;;;;;10456378;28;20229;-76
2022/11/02 12:01:06;;;;;;;6.27;2.10;;;18.00;71.10;;;;;;10470287;28;20831;-75
2022/11/02 12:06:28;;;;;;;8.57;2.03;;;18.10;70.70;;;;;;10463319;28;21163;-73
2022/11/02 12:11:39;;;;;;;7.10;2.27;;;18.00;71.80;;;;;;10447599;28;20347;-73
2022/11/02 12:17:10;;;;;;;9.03;2.30;;;18.00;73.00;;;;;;10483889;28;20702;-74
2022/11/02 12:22:47;;;;;;;7.53;2.03;;;18.20;73.00;;;;;;10453285;28;20253;-73
2022/11/02 12:28:16;;;;;;;7.77;2.03;;;18.40;71.20;;;;;;10438977;28;20579;-75
2022/11/02 12:33:30;;;;;;;6.40;2.27;;;18.50;71.80;;;;;;10448444;28;20225;-74
2022/11/02 12:38:51;;;;;;;7.97;1.90;;;18.50;71.60;;;;;;10451578;28;20221;-72
2022/11/02 12:44:04;;;;;;;6.40;1.80;;;18.50;70.70;;;;;;10448701;28;20222;-77
2022/11/02 12:49:24;;;;;;;7.07;2.00;;;18.70;67.90;;;;;;10449884;28;20561;-77
2022/11/02 12:54:34;;;;;;;6.67;1.63;;;18.50;65.80;;;;;;10450688;28;20266;-76
2022/11/02 12:59:34;;;;;;;7.53;1.90;;;18.20;67.10;;;;;;10478769;28;20647;-74
2022/11/02 13:04:46;;;;;;;7.90;3.20;;;17.80;70.50;;;;;;10450237;28;20328;-76
2022/11/02 13:10:04;;;;;;;10.27;2.57;;;17.50;72.80;;;;;;10449332;28;20234;-73
2022/11/02 13:15:10;;;;;;;8.23;2.17;;;17.40;72.90;;;;;;10446219;28;20824;-73
2022/11/02 13:20:22;;;;;;;7.23;1.80;;;17.40;72.70;;;;;;10452165;28;20204;-73
2022/11/02 13:25:32;;;;;;;7.87;2.07;;;17.50;72.50;;;;;;10453570;28;20193;-74
2022/11/02 13:30:33;;;;;;;7.23;1.77;;;17.50;70.10;;;;;;10444343;28;20233;-74
2022/11/02 13:35:41;;;;;;;6.43;1.87;;;17.40;70.00;;;;;;10452931;28;20311;-74
2022/11/02 13:40:48;;;;;;;8.50;2.03;;;17.20;71.80;;;;;;10447391;28;20226;-74
2022/11/02 13:46:07;;;;;;;8.77;1.97;;;17.10;72.70;;;;;;10444760;28;20224;-72
2022/11/02 13:51:22;;;;;;;4.20;1.60;;;17.00;73.60;;;;;;10451392;28;20243;-73
2022/11/02 13:56:26;;;;;;;9.93;2.30;;;16.80;73.80;;;;;;10447656;28;20473;-73
2022/11/02 14:01:30;;;;;;;8.87;2.00;;;16.70;74.90;;;;;;10447471;28;20698;-74
2022/11/02 14:06:42;;;;;;;7.67;2.57;;;16.50;75.60;;;;;;10450336;28;20239;-74
2022/11/02 14:11:43;;;;;;;5.20;1.77;;;16.40;76.60;;;;;;10445584;28;20698;-73
2022/11/02 14:16:50;;;;;;;8.40;1.70;;;16.40;77.10;;;;;;10448103;28;20353;-74
2022/11/02 14:21:53;;;;;;;6.87;2.07;;;16.30;77.60;;;;;;10450908;28;20216;-75
2022/11/02 14:26:55;;;;;;;8.90;1.83;;;16.00;79.10;;;;;;10446596;28;20583;-73
2022/11/02 14:32:01;;;;;;;8.23;2.23;;;15.80;79.30;;;;;;10447377;28;20224;-72
2022/11/02 14:37:34;;;;;;;7.43;1.70;;;15.70;80.20;;;;;;10446336;28;20220;-73
2022/11/02 14:43:13;;;;;;;6.03;1.93;;;15.80;80.20;;;;;;10443961;28;20219;-73
2022/11/02 14:48:15;;;;;;;8.33;2.00;;;15.70;81.30;;;;;;10450208;28;20645;-73
2022/11/02 14:53:26;;;;;;;7.43;2.30;;;15.60;81.90;;;;;;10442429;28;20224;-72
2022/11/02 14:58:49;;;;;;;7.93;2.03;;;15.40;82.70;;;;;;10439037;28;20227;-70
2022/11/02 15:03:50;;;;;;;7.30;1.70;;;15.30;84.00;;;;;;10447758;28;20220;-73
2022/11/02 15:08:53;;;;;;;8.93;2.00;;;15.20;85.20;;;;;;10443324;28;20710;-73
2022/11/02 15:13:54;;;;;;;7.60;2.10;;;15.10;86.50;;;;;;10444318;28;20242;-73
2022/11/02 15:19:45;;;;;;;5.77;1.93;;;15.00;87.60;;;;;;10447905;28;20767;-73
2022/11/02 15:24:48;;;;;;;9.13;2.50;;;14.80;88.10;;;;;;10441453;28;20224;-72
2022/11/02 15:29:49;;;;;;;7.93;2.20;;;14.70;89.10;;;;;;10445784;28;20281;-72
2022/11/02 15:34:53;;;;;;;8.17;2.30;;;14.50;90.00;;;;;;10447488;28;20215;-73
2022/11/02 15:40:10;;;;;;;4.33;1.90;;;14.30;91.00;;;;;;10443301;28;20267;-73
2022/11/02 15:45:30;;;;;;;7.70;1.90;;;14.20;91.20;;;;;;10446740;28;20227;-75
2022/11/02 15:51:08;;;;;;;7.03;2.13;;;14.00;91.70;;;;;;10443758;28;20216;-76
2022/11/02 15:56:46;;;;;;;5.10;2.20;;;13.80;92.60;;;;;;10443790;28;20219;-74
2022/11/02 16:02:04;;;;;;;7.67;2.73;;;13.50;93.90;;;;;;10442432;28;20227;-74
2022/11/02 16:07:05;;;;;;;8.20;2.33;;;13.30;94.60;;;;;;10461110;28;20226;-73
2022/11/02 16:12:23;;;;;;;7.57;2.40;;;13.10;95.90;;;;;;10440887;28;20242;-73
2022/11/02 16:17:26;;;;;;;8.70;2.40;;;12.90;97.40;;;;;;10451763;28;20220;-71
2022/11/02 16:22:26;;;;;;;12.30;2.53;;;12.70;99.60;;;;;;10450304;28;20231;-74
2022/11/02 16:27:28;;;;;;;5.03;1.83;;;12.50;99.90;;;;;;10451274;28;20234;-73
2022/11/02 16:32:29;;;;;;;9.97;1.90;;;12.40;99.90;;;;;;10451518;28;20220;-72
2022/11/02 16:37:29;;;;;;;9.30;2.70;;;12.30;99.90;;;;;;10450532;28;20239;-73
2022/11/02 16:42:30;;;;;;;8.60;2.20;;;12.20;99.90;;;;;;10449378;28;20268;-75
2022/11/02 16:47:39;;;;;;;5.83;2.50;;;12.10;99.90;;;;;;10451107;28;20219;-77
2022/11/02 16:52:39;;;;;;;6.30;2.53;;;12.10;99.90;;;;;;10447129;28;20235;-74
2022/11/02 16:57:44;;;;;;;8.80;2.80;;;12.00;99.90;;;;;;10453649;28;20238;-77
2022/11/02 17:02:46;;;;;;;7.10;2.90;;;11.90;99.90;;;;;;10451069;28;20220;-75
2022/11/02 17:08:03;;;;;;;7.53;2.80;;;11.80;99.90;;;;;;10451075;28;20204;-76
2022/11/02 17:13:11;;;;;;;10.30;3.40;;;11.70;99.90;;;;;;10457804;28;20795;-76
2022/11/02 17:18:33;;;;;;;9.13;3.90;;;11.70;99.90;;;;;;10457809;28;20216;-78
2022/11/02 17:23:35;;;;;;;10.87;3.60;;;11.60;99.90;;;;;;10464356;28;20216;-77
2022/11/02 17:28:36;;;;;;;6.33;3.27;;;11.60;99.90;;;;;;10467832;28;20231;-77
2022/11/02 17:33:41;;;;;;;11.17;3.63;;;11.50;99.90;;;;;;10472156;28;20220;-75
2022/11/02 17:38:42;;;;;;;7.80;2.80;;;11.40;99.90;;;;;;10472173;28;20219;-77
2022/11/02 17:43:43;;;;;;;7.97;2.80;;;11.30;99.90;;;;;;10496995;28;20216;-76
2022/11/02 17:48:43;;;;;;;7.27;3.30;;;11.20;99.90;;;;;;10472085;28;20219;-76
2022/11/02 17:53:45;;;;;;;6.17;3.10;;;11.00;99.90;;;;;;10468926;28;20212;-78
2022/11/02 17:58:45;;;;;;;7.60;2.93;;;10.90;99.90;;;;;;10471770;28;20593;-76
2022/11/02 18:03:46;;;;;;;7.50;3.13;;;10.80;99.90;;;;;;10498975;28;20217;-77
2022/11/02 18:14:11;;;;;;;7.87;3.50;;;10.60;99.90;;;;;;10468165;28;20220;-77
2022/11/02 18:19:12;;;;;;;8.53;3.50;;;10.50;99.90;;;;;;10465731;28;20223;-79
2022/11/02 18:24:13;;;;;;;10.40;3.60;;;10.50;99.90;;;;;;10463431;28;20242;-78
2022/11/02 18:29:13;;;;;;;10.27;3.50;;;10.50;99.90;;;;;;10472590;28;20229;-79
2022/11/02 18:34:14;;;;;;;6.97;2.67;;;10.50;99.90;;;;;;10462043;28;20243;-76
2022/11/02 18:39:14;;;;;;;9.73;3.50;;;10.40;99.90;;;;;;10483732;28;20219;-76
2022/11/02 18:44:15;;;;;;;7.63;3.30;;;10.40;99.90;;;;;;10456563;28;20310;-76
2022/11/02 18:49:15;;;;;;;12.53;4.10;;;10.40;99.90;;;;;;10454609;28;20707;-77
2022/11/02 18:54:16;;;;;;;9.33;3.30;;;10.40;99.90;;;;;;10459572;28;20244;-74
2022/11/02 18:59:18;;;;;;;8.07;3.20;;;10.30;99.90;;;;;;10455323;28;20223;-76
2022/11/02 19:04:19;;;;;;;8.67;4.00;;;10.20;99.90;;;;;;10456794;28;20219;-76
2022/11/02 19:09:22;;;;;;;7.47;3.90;;;10.20;99.90;;;;;;10454729;28;20234;-74
2022/11/02 19:14:22;;;;;;;7.70;3.60;;;10.10;99.90;;;;;;10450205;28;20222;-76
2022/11/02 19:19:23;;;;;;;10.40;3.80;;;10.10;99.90;;;;;;10462962;28;20224;-77
2022/11/02 19:24:24;;;;;;;12.27;4.13;;;10.00;99.90;;;;;;10461782;28;20228;-76
2022/11/02 19:29:24;;;;;;;9.03;4.00;;;9.90;99.90;;;;;;10463298;28;20231;-73
2022/11/02 19:34:25;;;;;;;10.03;3.40;;;9.90;99.90;;;;;;10496280;28;20438;-78
2022/11/02 19:39:26;;;;;;;12.90;3.80;;;9.80;99.90;;;;;;10463673;28;20634;-74
2022/11/02 19:44:26;;;;;;;8.40;3.90;;;9.80;99.90;;;;;;10463194;28;20256;-76
2022/11/02 19:49:27;;;;;;;9.70;3.87;;;9.70;99.90;;;;;;10469746;28;20734;-78
2022/11/02 19:54:27;;;;;;;6.37;3.40;;;9.60;99.90;;;;;;10460851;28;20559;-81
2022/11/02 19:59:29;;;;;;;11.57;4.53;;;9.60;99.90;;;;;;10471002;28;20225;-76
2022/11/02 20:04:30;;;;;;;7.77;4.33;;;9.50;99.90;;;;;;10460956;28;20288;-77
2022/11/02 20:09:30;;;;;;;22.10;5.30;;;9.40;99.90;;;;;;10484498;28;20274;-74
2022/11/02 20:14:32;;;;;;;13.03;5.27;;;9.40;99.90;;;;;;10453830;28;20682;-76
2022/11/02 20:19:33;;;;;;;10.27;4.60;;;9.30;99.90;;;;;;10450920;28;20219;-75
2022/11/02 20:24:35;;;;;;;10.13;4.43;;;9.30;99.90;;;;;;10453613;28;20265;-73
2022/11/02 20:29:35;;;;;;;9.90;4.33;;;9.30;99.90;;;;;;10450123;28;20219;-74
2022/11/02 20:34:36;;;;;;;10.90;5.13;;;9.30;99.90;;;;;;10450383;28;20705;-74
2022/11/02 20:39:36;;;;;;;14.63;5.00;;;9.30;99.90;;;;;;10449295;28;20226;-74
2022/11/02 20:44:37;;;;;;;9.97;5.00;;;9.20;99.90;;;;;;10451551;28;20219;-74
2022/11/02 20:49:37;;;;;;;9.80;5.53;;;9.30;99.90;;;;;;10447204;28;20242;-70
2022/11/02 20:54:38;;;;;;;10.43;5.00;;;9.30;99.90;;;;;;10446399;28;20215;-73
2022/11/02 20:59:39;;;;;;;9.87;4.87;;;9.20;99.90;;;;;;10448152;28;20215;-72
2022/11/02 21:04:39;;;;;;;10.93;5.20;;;9.20;99.90;;;;;;10444520;28;20242;-74
2022/11/02 21:09:40;;;;;;;15.30;6.00;;;9.20;99.90;;;;;;10449711;28;20238;-71
2022/11/02 21:14:40;;;;;;;10.77;5.50;;;9.10;99.90;;;;;;10447459;28;20224;-70
2022/11/02 21:19:41;;;;;;;12.37;6.13;;;9.10;99.90;;;;;;10446936;28;20221;-73
2022/11/02 21:24:41;;;;;;;14.40;7.20;;;9.10;99.90;;;;;;10451676;28;20318;-72
2022/11/02 21:29:42;;;;;;;11.23;5.47;;;9.10;99.90;;;;;;10455532;28;20708;-74
2022/11/02 21:34:43;;;;;;;13.77;6.73;;;9.20;99.90;;;;;;10467103;28;20215;-79
2022/11/02 21:39:43;;;;;;;11.03;6.27;;;9.30;99.90;;;;;;10469952;28;20221;-80
2022/11/02 21:44:44;;;;;;;15.83;6.93;;;9.30;99.90;;;;;;10454310;28;20235;-79
2022/11/02 21:49:44;;;;;;;13.13;7.50;;;9.30;99.90;;;;;;10467265;28;20220;-76
2022/11/02 21:54:45;;;;;;;14.83;7.67;;;9.30;99.90;;;;;;10472456;28;20763;-78
2022/11/02 21:59:48;;;;;;;14.87;7.23;;;9.20;99.90;;;;;;10470408;28;20360;-78
2022/11/02 22:04:55;;;;;;;13.83;7.40;;;9.20;99.90;;;;;;10466579;28;20226;-78
2022/11/02 22:09:58;;;;;;;16.63;7.03;;;9.20;99.90;;;;;;10468018;28;20265;-76
2022/11/02 22:14:59;;;;;;;14.57;7.10;;;9.10;99.90;;;;;;10472612;28;20214;-78
2022/11/02 22:19:59;;;;;;;15.43;6.43;;;9.20;99.90;;;;;;10466809;28;20837;-76
2022/11/02 22:25:00;;;;;;;15.57;7.00;;;9.10;99.90;;;;;;10506328;28;20712;-75
2022/11/02 22:30:01;;;;;;;12.80;5.80;;;9.00;99.90;;;;;;10465299;28;20230;-77
2022/11/02 22:35:01;;;;;;;11.10;6.13;;;9.00;99.90;;;;;;10468621;28;20211;-75
2022/11/02 22:40:02;;;;;;;15.33;6.40;;;8.90;99.90;;;;;;10500079;28;20223;-76
2022/11/02 22:45:03;;;;;;;12.00;5.53;;;8.80;99.90;;;;;;10463285;28;20236;-75
2022/11/02 22:50:04;;;;;;;11.33;6.30;;;8.80;99.90;;;;;;10464875;28;20222;-77
2022/11/02 22:55:06;;;;;;;14.93;7.73;;;8.80;99.90;;;;;;10456515;28;20242;-76
2022/11/02 23:00:07;;;;;;;14.00;6.77;;;8.90;99.90;;;;;;10469171;28;20200;-77
2022/11/02 23:05:08;;;;;;;11.70;6.37;;;9.00;99.90;;;;;;10467033;28;20266;-77
2022/11/02 23:11:20;;;;;;;11.70;5.73;;;9.00;99.90;;;;;;10471366;28;20332;-76
2022/11/02 23:15:30;;;;;;;14.07;6.23;;;8.90;99.90;;;;;;10452196;28;20725;-77
2022/11/02 23:20:30;;;;;;;11.13;5.87;;;8.90;99.90;;;;;;10454584;28;20217;-78
2022/11/02 23:25:31;;;;;;;13.00;6.43;;;8.80;99.90;;;;;;10463232;28;20588;-78
2022/11/02 23:36:11;;;;;;;10.03;5.80;;;8.70;99.90;;;;;;10486293;28;20634;-78
2022/11/02 23:41:11;;;;;;;10.73;5.90;;;8.60;99.90;;;;;;10478161;28;20220;-78
2022/11/02 23:46:12;;;;;;;11.90;6.20;;;8.50;99.90;;;;;;10473434;28;20314;-79
2022/11/02 23:56:42;;;;;;;12.37;5.50;;;8.30;99.90;;;;;;10476759;28;20748;-78
